Time;durP1;ratioP1;P1;durP2;ratioP2;P2;SDS_P1;SDS_P2;PMS_P1;PMS_P2;Temp;Humidity;BMP_temperature;BMP_pressure;BME280_temperature;BME280_humidity;BME280_pressure;Samples;Min_cycle;Max_cycle;Signal;HPM_P1;HPM_P2
2023/12/30 00:01:45;;;;;;;5.63;1.13;;;7.30;99.90;;;;;;5100650;28;20100;-91
2023/12/30 00:04:11;;;;;;;6.88;0.90;;;7.30;99.90;;;;;;5094617;28;20390;-92
2023/12/30 00:06:36;;;;;;;4.28;0.60;;;7.40;99.90;;;;;;5089818;28;20509;-91
2023/12/30 00:09:02;;;;;;;2.88;0.65;;;7.40;99.90;;;;;;5062315;28;20085;-91
2023/12/30 00:11:28;;;;;;;7.97;1.33;;;7.40;99.90;;;;;;5083464;28;20551;-91
2023/12/30 00:13:54;;;;;;;2.38;0.77;;;7.40;99.90;;;;;;5080771;28;20036;-91
2023/12/30 00:16:19;;;;;;;3.72;0.43;;;7.30;99.90;;;;;;5078033;28;20047;-91
2023/12/30 00:18:45;;;;;;;1.85;0.55;;;7.30;99.90;;;;;;5093300;28;20036;-91
2023/12/30 00:21:10;;;;;;;6.20;1.00;;;7.30;99.90;;;;;;5077364;28;20505;-91
2023/12/30 00:23:39;;;;;;;3.42;0.55;;;7.20;99.90;;;;;;5076346;28;20097;-91
2023/12/30 00:26:04;;;;;;;4.45;1.02;;;7.20;99.90;;;;;;5076163;28;20054;-91
2023/12/30 00:28:30;;;;;;;4.90;0.77;;;7.10;99.90;;;;;;5077506;28;20039;-90
2023/12/30 00:30:55;;;;;;;2.88;0.40;;;7.10;99.90;;;;;;5062970;28;20032;-91
2023/12/30 00:33:21;;;;;;;0.73;0.20;;;7.10;99.90;;;;;;5066718;28;20569;-91
2023/12/30 00:35:46;;;;;;;12.63;0.57;;;7.10;99.90;;;;;;5062959;28;20040;-91
2023/12/30 00:38:12;;;;;;;2.72;0.52;;;7.10;99.90;;;;;;5065907;28;20491;-92
2023/12/30 00:40:38;;;;;;;3.90;0.65;;;7.10;99.90;;;;;;5093298;28;20051;-91
2023/12/30 00:43:03;;;;;;;2.92;0.68;;;7.10;99.90;;;;;;5075306;28;20028;-91
2023/12/30 00:45:29;;;;;;;5.65;1.10;;;7.00;99.90;;;;;;5094274;28;20454;-91
2023/12/30 00:47:56;;;;;;;4.85;0.80;;;7.00;99.90;;;;;;5063029;28;20029;-91
2023/12/30 00:50:21;;;;;;;2.65;0.68;;;7.00;99.90;;;;;;5066466;28;20043;-92
2023/12/30 00:52:47;;;;;;;4.60;0.73;;;7.00;99.90;;;;;;5062556;28;20028;-91
2023/12/30 00:55:12;;;;;;;3.90;1.10;;;7.00;99.90;;;;;;5066258;28;20035;-91
2023/12/30 00:57:38;;;;;;;5.38;1.45;;;7.00;99.90;;;;;;5078519;28;20554;-91
2023/12/30 01:00:04;;;;;;;3.30;0.38;;;7.00;99.90;;;;;;5110894;28;20065;-92
2023/12/30 01:02:30;;;;;;;0.40;0.32;;;7.00;99.90;;;;;;5090549;28;20082;-92
2023/12/30 01:04:56;;;;;;;7.68;1.58;;;7.00;99.90;;;;;;5097296;28;20072;-92
2023/12/30 01:07:21;;;;;;;4.07;0.40;;;7.00;99.90;;;;;;5086712;28;20044;-91
2023/12/30 01:09:47;;;;;;;5.20;1.65;;;6.90;99.90;;;;;;5085154;28;20035;-91
2023/12/30 01:12:12;;;;;;;2.05;0.32;;;6.90;99.90;;;;;;5090685;28;20124;-92
2023/12/30 01:14:38;;;;;;;0.68;0.35;;;6.90;99.90;;;;;;5092165;28;20150;-90
2023/12/30 01:17:04;;;;;;;7.43;0.55;;;6.90;99.90;;;;;;5092141;28;20063;-91
2023/12/30 01:19:29;;;;;;;10.23;1.35;;;6.90;99.90;;;;;;5092312;28;20495;-91
2023/12/30 01:21:55;;;;;;;2.30;0.52;;;6.80;99.90;;;;;;5083523;28;20093;-91
2023/12/30 01:24:20;;;;;;;5.40;0.68;;;6.80;99.90;;;;;;5091314;28;20075;-91
2023/12/30 01:26:46;;;;;;;4.95;1.23;;;6.80;99.90;;;;;;5108668;28;20040;-92
2023/12/30 01:29:12;;;;;;;4.05;0.70;;;6.80;99.90;;;;;;5092119;28;20482;-91
2023/12/30 01:31:37;;;;;;;1.88;0.73;;;6.80;99.90;;;;;;5092106;28;20093;-91
2023/12/30 01:34:03;;;;;;;2.53;0.35;;;6.80;99.90;;;;;;5091677;28;20418;-91
2023/12/30 01:36:29;;;;;;;1.45;0.22;;;6.80;99.90;;;;;;5092007;28;20044;-91
2023/12/30 01:38:54;;;;;;;5.70;0.45;;;6.70;99.90;;;;;;5091881;28;20039;-91
2023/12/30 01:41:20;;;;;;;3.13;0.40;;;6.70;99.90;;;;;;5108690;28;20078;-91
2023/12/30 01:43:45;;;;;;;4.43;0.80;;;6.70;99.90;;;;;;5108562;28;20040;-92
2023/12/30 01:46:12;;;;;;;6.57;0.95;;;6.70;99.90;;;;;;5090489;28;20514;-91
2023/12/30 01:48:38;;;;;;;3.70;0.77;;;6.70;99.90;;;;;;5071245;28;20047;-92
2023/12/30 01:51:07;;;;;;;2.20;0.43;;;6.70;99.90;;;;;;5090413;28;20112;-91
2023/12/30 01:53:38;;;;;;;0.85;0.30;;;6.70;99.90;;;;;;5082671;28;20043;-91
2023/12/30 01:56:05;;;;;;;2.63;0.22;;;6.70;99.90;;;;;;5091694;28;20044;-91
2023/12/30 01:58:31;;;;;;;2.40;0.38;;;6.70;99.90;;;;;;5083424;28;20036;-90
2023/12/30 02:00:58;;;;;;;1.75;0.22;;;6.60;99.90;;;;;;5092054;28;20062;-90
2023/12/30 02:03:24;;;;;;;3.13;0.25;;;6.60;99.90;;;;;;5091696;28;20050;-91
2023/12/30 02:05:49;;;;;;;1.92;0.40;;;6.60;99.90;;;;;;5091562;28;20120;-91
2023/12/30 02:08:16;;;;;;;5.28;0.47;;;6.60;99.90;;;;;;5088176;28;20495;-91
2023/12/30 02:10:42;;;;;;;3.42;0.95;;;6.60;99.90;;;;;;5093824;28;20545;-91
2023/12/30 02:13:08;;;;;;;2.58;0.52;;;6.60;99.90;;;;;;5091021;28;20046;-90
2023/12/30 02:15:35;;;;;;;2.58;1.15;;;6.50;99.90;;;;;;5103414;28;20035;-91
2023/12/30 02:18:01;;;;;;;3.10;0.73;;;6.50;99.90;;;;;;5095195;28;20039;-91
2023/12/30 02:20:27;;;;;;;0.57;0.22;;;6.50;99.90;;;;;;5094914;28;20502;-90
2023/12/30 02:22:53;;;;;;;7.32;1.05;;;6.50;99.90;;;;;;5094788;28;20049;-90
2023/12/30 02:25:19;;;;;;;3.63;0.63;;;6.50;99.90;;;;;;5089433;28;20043;-91
2023/12/30 02:27:45;;;;;;;0.65;0.13;;;6.50;99.90;;;;;;5095009;28;20038;-91
2023/12/30 02:30:12;;;;;;;2.03;0.43;;;6.60;99.90;;;;;;5094591;28;20122;-91
2023/12/30 02:32:37;;;;;;;4.07;0.80;;;6.60;99.90;;;;;;5095209;28;20040;-92
2023/12/30 02:35:03;;;;;;;4.82;0.82;;;6.70;99.90;;;;;;5105322;28;20035;-91
2023/12/30 02:37:29;;;;;;;2.28;0.75;;;6.60;99.90;;;;;;5086354;28;20042;-91
2023/12/30 02:39:55;;;;;;;5.75;0.70;;;6.60;99.90;;;;;;5094399;28;20031;-92
2023/12/30 02:42:20;;;;;;;3.72;0.88;;;6.50;99.90;;;;;;5095133;28;20078;-91
2023/12/30 02:44:46;;;;;;;8.13;1.05;;;6.50;99.90;;;;;;5094242;28;20498;-91
2023/12/30 02:47:12;;;;;;;5.47;1.00;;;6.40;99.90;;;;;;5094401;28;20036;-92
2023/12/30 02:49:43;;;;;;;9.02;0.77;;;6.30;99.90;;;;;;5094861;28;20107;-92
2023/12/30 02:52:09;;;;;;;1.58;0.50;;;6.30;99.90;;;;;;5094315;28;20047;-92
2023/12/30 02:54:35;;;;;;;5.15;0.88;;;6.20;99.90;;;;;;5094338;28;20039;-91
2023/12/30 02:57:02;;;;;;;3.50;0.88;;;6.20;99.90;;;;;;5094384;28;20043;-91
2023/12/30 02:59:29;;;;;;;3.35;1.17;;;6.10;99.90;;;;;;5094396;28;20126;-91
2023/12/30 03:01:54;;;;;;;2.65;0.95;;;6.10;99.90;;;;;;5094299;28;20063;-91
2023/12/30 03:04:20;;;;;;;1.27;0.30;;;6.10;99.90;;;;;;5093777;28;20124;-91
2023/12/30 03:06:45;;;;;;;1.67;1.10;;;6.00;99.90;;;;;;5111480;28;20071;-91
2023/12/30 03:09:11;;;;;;;2.67;0.70;;;6.00;99.90;;;;;;5075383;28;20745;-91
2023/12/30 03:11:37;;;;;;;2.45;0.57;;;6.00;99.90;;;;;;5093237;28;20040;-91
2023/12/30 03:14:03;;;;;;;4.10;1.15;;;5.90;99.90;;;;;;5093611;28;20044;-91
2023/12/30 03:16:29;;;;;;;7.57;1.17;;;5.90;99.90;;;;;;5110886;28;20168;-92
2023/12/30 03:18:55;;;;;;;0.30;0.15;;;5.90;99.90;;;;;;5095527;28;20050;-91
2023/12/30 03:21:21;;;;;;;2.10;0.70;;;5.90;99.90;;;;;;5087416;28;20044;-91
2023/12/30 03:23:47;;;;;;;0.38;0.20;;;5.80;99.90;;;;;;5086250;28;20051;-91
2023/12/30 03:26:12;;;;;;;7.63;0.90;;;5.80;99.90;;;;;;5110858;28;20042;-91
2023/12/30 03:28:38;;;;;;;2.63;0.80;;;5.80;99.90;;;;;;5093506;28;20039;-91
2023/12/30 03:31:05;;;;;;;6.18;0.63;;;5.80;99.90;;;;;;5094007;28;20031;-91
2023/12/30 03:33:31;;;;;;;3.42;0.68;;;5.80;99.90;;;;;;5093399;28;20034;-92
2023/12/30 03:35:56;;;;;;;3.25;0.70;;;5.80;99.90;;;;;;5093640;28;20643;-91
2023/12/30 03:38:22;;;;;;;4.93;1.23;;;5.70;99.90;;;;;;5110648;28;20051;-91
2023/12/30 03:40:47;;;;;;;4.93;0.90;;;5.70;99.90;;;;;;5093972;28;20558;-91
2023/12/30 03:43:14;;;;;;;3.33;0.52;;;5.60;99.90;;;;;;5109894;28;20103;-90
2023/12/30 03:45:40;;;;;;;2.40;0.75;;;5.60;99.90;;;;;;5110353;28;20254;-92
2023/12/30 03:48:06;;;;;;;6.68;1.50;;;5.60;99.90;;;;;;5092745;28;20513;-90
2023/12/30 03:50:32;;;;;;;3.47;0.70;;;5.60;99.90;;;;;;5085451;28;20040;-90
2023/12/30 03:52:57;;;;;;;3.90;0.50;;;5.60;99.90;;;;;;5093041;28;20043;-90
2023/12/30 03:55:23;;;;;;;1.05;0.57;;;5.60;99.90;;;;;;5087218;28;20452;-90
2023/12/30 03:57:48;;;;;;;2.50;1.00;;;5.70;99.90;;;;;;5087512;28;20043;-92
2023/12/30 04:00:14;;;;;;;4.63;0.80;;;5.70;99.90;;;;;;5084622;28;20047;-91
2023/12/30 04:02:40;;;;;;;4.78;0.57;;;5.70;99.90;;;;;;5105120;28;20143;-91
2023/12/30 04:05:06;;;;;;;4.28;0.75;;;5.60;99.90;;;;;;5083396;28;20047;-90
2023/12/30 04:07:32;;;;;;;6.38;1.23;;;5.60;99.90;;;;;;5069971;28;20035;-91
2023/12/30 04:09:58;;;;;;;4.75;0.60;;;5.60;99.90;;;;;;5076616;28;20462;-91
2023/12/30 04:12:24;;;;;;;5.90;0.63;;;5.60;99.90;;;;;;5110077;28;20027;-92
2023/12/30 04:14:50;;;;;;;3.42;0.57;;;5.60;99.90;;;;;;5092528;28;20499;-91
2023/12/30 04:17:16;;;;;;;0.40;0.13;;;5.60;99.90;;;;;;5109623;28;20130;-91
2023/12/30 04:19:42;;;;;;;2.97;1.25;;;5.60;99.90;;;;;;5109571;28;20083;-90
2023/12/30 04:22:07;;;;;;;4.78;0.65;;;5.60;99.90;;;;;;5083300;28;20043;-90
2023/12/30 04:24:33;;;;;;;3.05;0.73;;;5.60;99.90;;;;;;5072182;28;20036;-91
2023/12/30 04:26:59;;;;;;;8.80;1.67;;;5.60;99.90;;;;;;5072460;28;20067;-91
2023/12/30 04:29:26;;;;;;;4.88;1.13;;;5.60;99.90;;;;;;5109298;28;20035;-91
2023/12/30 04:31:51;;;;;;;9.00;2.10;;;5.50;99.90;;;;;;5108842;28;20071;-90
2023/12/30 04:34:17;;;;;;;2.08;1.20;;;5.50;99.90;;;;;;5091923;28;20070;-91
2023/12/30 04:36:43;;;;;;;10.25;1.52;;;5.50;99.90;;;;;;5101125;28;20138;-91
2023/12/30 04:39:08;;;;;;;4.00;0.68;;;5.50;99.90;;;;;;5091539;28;20039;-91
2023/12/30 04:41:35;;;;;;;6.63;0.57;;;5.50;99.90;;;;;;5101940;28;20039;-91
2023/12/30 04:44:01;;;;;;;5.50;2.13;;;5.40;99.90;;;;;;5091973;28;20044;-90
2023/12/30 04:46:27;;;;;;;4.72;0.90;;;5.50;99.90;;;;;;5092218;28;20168;-92
2023/12/30 04:48:54;;;;;;;6.72;1.00;;;5.50;99.90;;;;;;5109228;28;20032;-92
2023/12/30 04:51:20;;;;;;;8.88;1.25;;;5.50;99.90;;;;;;5092207;28;20063;-91
2023/12/30 04:53:46;;;;;;;2.78;0.55;;;5.50;99.90;;;;;;5092208;28;20434;-92
2023/12/30 04:56:15;;;;;;;1.90;0.55;;;5.50;99.90;;;;;;5091995;28;20058;-92
2023/12/30 04:58:41;;;;;;;2.35;0.73;;;5.50;99.90;;;;;;5092695;28;20036;-92
2023/12/30 05:01:08;;;;;;;4.03;0.60;;;5.50;99.90;;;;;;5092153;28;20050;-91
2023/12/30 05:03:40;;;;;;;1.75;0.95;;;5.50;99.90;;;;;;5091327;28;20043;-92
2023/12/30 05:06:06;;;;;;;5.13;0.80;;;5.50;99.90;;;;;;5091771;28;20518;-91
2023/12/30 05:08:32;;;;;;;3.88;2.05;;;5.50;99.90;;;;;;5099166;28;20035;-91
2023/12/30 05:10:58;;;;;;;1.63;0.65;;;5.60;99.90;;;;;;5099299;28;20035;-90
2023/12/30 05:13:23;;;;;;;3.63;0.85;;;5.60;99.90;;;;;;5092017;28;20451;-91
2023/12/30 05:15:49;;;;;;;2.13;0.30;;;5.60;99.90;;;;;;5108950;28;20618;-90
2023/12/30 05:18:16;;;;;;;1.65;0.40;;;5.70;99.90;;;;;;5091969;28;20036;-91
2023/12/30 05:20:41;;;;;;;3.60;0.50;;;5.70;99.90;;;;;;5091381;28;20040;-90
2023/12/30 05:23:07;;;;;;;1.55;0.35;;;5.60;99.90;;;;;;5091708;28;20130;-90
2023/12/30 05:25:33;;;;;;;3.60;0.55;;;5.60;99.90;;;;;;5108840;28;20042;-90
2023/12/30 05:27:58;;;;;;;4.55;0.93;;;5.60;99.90;;;;;;5083863;28;20043;-91
2023/12/30 05:30:24;;;;;;;2.65;0.60;;;5.60;99.90;;;;;;5108735;28;20036;-91
2023/12/30 05:32:49;;;;;;;1.90;0.63;;;5.60;99.90;;;;;;5108484;28;20495;-91
2023/12/30 05:35:15;;;;;;;4.20;0.98;;;5.50;99.90;;;;;;5108727;28;20498;-90
2023/12/30 05:37:41;;;;;;;3.22;1.65;;;5.60;99.90;;;;;;5091770;28;20073;-91
2023/12/30 05:40:08;;;;;;;2.83;0.65;;;5.50;99.90;;;;;;5084116;28;20044;-92
2023/12/30 05:42:34;;;;;;;5.25;0.65;;;5.50;99.90;;;;;;5093514;28;20042;-92
2023/12/30 05:45:00;;;;;;;7.22;0.47;;;5.50;99.90;;;;;;5112687;28;20031;-91
2023/12/30 05:47:25;;;;;;;0.63;0.55;;;5.50;99.90;;;;;;5092344;28;20086;-91
2023/12/30 05:49:51;;;;;;;4.10;0.63;;;5.50;99.90;;;;;;5090659;28;20040;-93
2023/12/30 05:52:16;;;;;;;1.42;0.50;;;5.60;99.90;;;;;;5106246;28;20134;-92
2023/12/30 05:54:44;;;;;;;2.83;0.35;;;5.50;99.90;;;;;;5095308;28;20126;-92
2023/12/30 05:57:10;;;;;;;0.65;0.40;;;5.60;99.90;;;;;;5095661;28;20096;-92
2023/12/30 05:59:36;;;;;;;1.80;0.20;;;5.50;99.90;;;;;;5087268;28;20035;-93
2023/12/30 06:02:02;;;;;;;4.55;1.42;;;5.60;99.90;;;;;;5112478;28;20040;-92
2023/12/30 06:04:28;;;;;;;3.15;0.40;;;5.60;99.90;;;;;;5086621;28;20393;-92
2023/12/30 06:06:54;;;;;;;2.55;1.45;;;5.60;99.90;;;;;;5086832;28;20040;-93
2023/12/30 06:09:20;;;;;;;2.33;1.58;;;5.60;99.90;;;;;;5099842;28;20415;-91
2023/12/30 06:11:45;;;;;;;7.47;0.65;;;5.60;99.90;;;;;;5088917;28;20032;-92
2023/12/30 06:14:11;;;;;;;4.90;0.93;;;5.60;99.90;;;;;;5101033;28;20039;-90
2023/12/30 06:16:36;;;;;;;2.38;0.43;;;5.60;99.90;;;;;;5094769;28;20399;-91
2023/12/30 06:19:02;;;;;;;1.02;0.40;;;5.60;99.90;;;;;;5095273;28;20052;-91
2023/12/30 06:21:28;;;;;;;3.20;0.93;;;5.60;99.90;;;;;;5111834;28;20044;-92
2023/12/30 06:23:53;;;;;;;2.20;0.32;;;5.60;99.90;;;;;;5094622;28;20050;-91
2023/12/30 06:26:19;;;;;;;1.65;0.57;;;5.50;99.90;;;;;;5086556;28;20040;-91
2023/12/30 06:28:45;;;;;;;6.35;1.00;;;5.60;99.90;;;;;;5097314;28;20062;-91
2023/12/30 06:31:10;;;;;;;7.47;1.23;;;5.50;99.90;;;;;;5090115;28;20035;-91
2023/12/30 06:33:36;;;;;;;2.15;0.85;;;5.50;99.90;;;;;;5068702;28;20081;-92
2023/12/30 06:36:02;;;;;;;4.00;1.05;;;5.50;99.90;;;;;;5068547;28;20043;-91
2023/12/30 06:38:27;;;;;;;4.25;0.20;;;5.50;99.90;;;;;;5064954;28;20044;-90
2023/12/30 06:40:53;;;;;;;2.65;0.65;;;5.50;99.90;;;;;;5080100;28;20040;-91
2023/12/30 06:43:18;;;;;;;5.03;0.88;;;5.50;99.90;;;;;;5068783;28;20036;-91
2023/12/30 06:45:44;;;;;;;7.18;0.75;;;5.50;99.90;;;;;;5086181;28;20031;-91
2023/12/30 06:48:09;;;;;;;3.65;1.27;;;5.40;99.90;;;;;;5086019;28;20032;-90
2023/12/30 06:50:35;;;;;;;6.43;1.00;;;5.40;99.90;;;;;;5094098;28;20414;-90
2023/12/30 06:53:01;;;;;;;5.28;0.90;;;5.40;99.90;;;;;;5083280;28;20036;-89
2023/12/30 06:55:26;;;;;;;1.85;0.68;;;5.40;99.90;;;;;;5093962;28;20032;-89
2023/12/30 06:57:53;;;;;;;5.18;0.80;;;5.40;99.90;;;;;;5094295;28;20122;-91
2023/12/30 07:00:19;;;;;;;6.55;0.80;;;5.40;99.90;;;;;;5085532;28;20040;-91
2023/12/30 07:02:45;;;;;;;4.63;0.65;;;5.30;99.90;;;;;;5102427;28;20043;-90
2023/12/30 07:05:11;;;;;;;2.15;0.82;;;5.30;99.90;;;;;;5085553;28;20047;-90
2023/12/30 07:07:37;;;;;;;7.22;1.08;;;5.30;99.90;;;;;;5092185;28;20039;-90
2023/12/30 07:10:06;;;;;;;3.83;1.48;;;5.30;99.90;;;;;;5093367;28;20110;-91
2023/12/30 07:12:32;;;;;;;0.52;0.30;;;5.20;99.90;;;;;;5093504;28;20047;-91
2023/12/30 07:14:57;;;;;;;1.38;0.50;;;5.30;99.90;;;;;;5093932;28;20039;-92
2023/12/30 07:17:23;;;;;;;2.63;0.60;;;5.20;99.90;;;;;;5083489;28;20044;-91
2023/12/30 07:19:49;;;;;;;7.20;1.52;;;5.20;99.90;;;;;;5086465;28;20046;-91
2023/12/30 07:22:18;;;;;;;2.00;0.70;;;5.20;99.90;;;;;;5102830;28;20039;-89
2023/12/30 07:24:45;;;;;;;3.60;0.63;;;5.20;99.90;;;;;;5110409;28;20505;-89
2023/12/30 07:27:10;;;;;;;2.53;1.08;;;5.20;99.90;;;;;;5110595;28;20040;-89
2023/12/30 07:29:36;;;;;;;2.28;0.52;;;5.20;99.90;;;;;;5093365;28;20069;-89
2023/12/30 07:32:02;;;;;;;3.75;1.27;;;5.10;99.90;;;;;;5110968;28;20039;-91
2023/12/30 07:34:28;;;;;;;2.30;0.70;;;5.10;99.90;;;;;;5093338;28;20027;-90
2023/12/30 07:36:54;;;;;;;4.07;1.48;;;5.20;99.90;;;;;;5093977;28;20035;-90
2023/12/30 07:39:20;;;;;;;5.57;0.90;;;5.10;99.90;;;;;;5102254;28;20044;-90
2023/12/30 07:41:45;;;;;;;3.95;1.02;;;5.10;99.90;;;;;;5110658;28;20048;-90
2023/12/30 07:44:11;;;;;;;9.68;1.58;;;5.10;99.90;;;;;;5108840;28;20521;-91
2023/12/30 07:46:36;;;;;;;4.68;0.65;;;5.10;99.90;;;;;;5085701;28;20043;-92
2023/12/30 07:49:02;;;;;;;4.50;0.43;;;5.10;99.90;;;;;;5092903;28;20043;-92
2023/12/30 07:51:28;;;;;;;4.28;1.00;;;5.10;99.90;;;;;;5093461;28;20414;-91
2023/12/30 07:53:54;;;;;;;1.95;1.08;;;5.10;99.90;;;;;;5093574;28;20035;-92
2023/12/30 07:56:19;;;;;;;3.72;0.75;;;5.10;99.90;;;;;;5092744;28;20604;-91
2023/12/30 07:58:45;;;;;;;5.68;1.30;;;5.20;99.90;;;;;;5093107;28;20076;-91
2023/12/30 08:01:10;;;;;;;3.90;1.15;;;5.20;99.90;;;;;;5102053;28;20047;-91
2023/12/30 08:03:36;;;;;;;3.03;0.77;;;5.20;99.90;;;;;;5111369;28;20495;-91
2023/12/30 08:06:02;;;;;;;4.38;1.25;;;5.20;99.90;;;;;;5076716;28;20051;-91
2023/12/30 08:08:27;;;;;;;5.47;0.98;;;5.20;99.90;;;;;;5065759;28;20377;-90
2023/12/30 08:10:53;;;;;;;11.38;2.00;;;5.20;99.90;;;;;;5086904;28;20476;-90
2023/12/30 08:13:19;;;;;;;2.53;0.75;;;5.30;99.90;;;;;;5109444;28;20046;-91
2023/12/30 08:15:44;;;;;;;1.42;0.55;;;5.30;99.90;;;;;;5092599;28;20040;-91
2023/12/30 08:18:11;;;;;;;5.03;1.08;;;5.30;99.90;;;;;;5084737;28;20046;-91
2023/12/30 08:20:36;;;;;;;6.15;1.30;;;5.30;99.90;;;;;;5109030;28;20502;-91
2023/12/30 08:23:02;;;;;;;4.70;1.08;;;5.30;99.90;;;;;;5092152;28;20047;-90
2023/12/30 08:25:28;;;;;;;7.10;1.52;;;5.30;99.90;;;;;;5074384;28;20047;-90
2023/12/30 08:27:53;;;;;;;5.40;1.30;;;5.30;99.90;;;;;;5108915;28;20046;-91
2023/12/30 08:30:19;;;;;;;5.35;1.33;;;5.30;99.90;;;;;;5091666;28;20024;-91
2023/12/30 08:32:44;;;;;;;6.03;1.20;;;5.40;99.90;;;;;;5100316;28;20490;-91
2023/12/30 08:35:11;;;;;;;11.73;2.78;;;5.40;99.90;;;;;;5073300;28;20040;-91
2023/12/30 08:37:37;;;;;;;6.63;1.95;;;5.40;99.90;;;;;;5092971;28;20046;-90
2023/12/30 08:40:09;;;;;;;8.25;3.08;;;5.40;99.90;;;;;;5092712;28;20126;-91
2023/12/30 08:42:35;;;;;;;13.85;4.38;;;5.50;99.90;;;;;;5109928;28;20047;-91
2023/12/30 08:45:04;;;;;;;14.13;3.67;;;5.50;99.90;;;;;;5091926;28;20040;-90
2023/12/30 08:47:33;;;;;;;5.93;1.27;;;5.50;99.90;;;;;;5087939;28;20122;-90
2023/12/30 08:49:59;;;;;;;15.60;4.00;;;5.50;99.90;;;;;;5071671;28;20039;-90
2023/12/30 08:52:24;;;;;;;5.95;1.90;;;5.50;99.90;;;;;;5074256;28;20433;-89
2023/12/30 08:54:50;;;;;;;13.02;3.20;;;5.60;99.90;;;;;;5082759;28;20031;-90
2023/12/30 08:57:16;;;;;;;4.00;1.90;;;5.60;99.90;;;;;;5091643;28;20048;-90
2023/12/30 08:59:41;;;;;;;9.38;3.00;;;5.70;99.90;;;;;;5092210;28;20043;-90
2023/12/30 09:02:07;;;;;;;17.92;3.33;;;5.70;99.90;;;;;;5092068;28;20446;-90
2023/12/30 09:04:33;;;;;;;5.05;1.73;;;5.80;99.90;;;;;;5108962;28;20035;-90
2023/12/30 09:06:58;;;;;;;5.50;2.25;;;5.80;99.90;;;;;;5105097;28;20112;-90
2023/12/30 09:09:25;;;;;;;14.60;2.90;;;5.80;99.90;;;;;;5073578;28;20050;-90
2023/12/30 09:11:50;;;;;;;8.02;2.65;;;5.80;99.90;;;;;;5083586;28;20513;-89
2023/12/30 09:14:16;;;;;;;7.47;2.33;;;5.90;99.90;;;;;;5089747;28;20035;-90
2023/12/30 09:16:42;;;;;;;7.65;2.17;;;5.90;99.90;;;;;;5102799;28;20047;-90
2023/12/30 09:19:07;;;;;;;12.20;3.33;;;5.90;99.90;;;;;;5095683;28;20046;-90
2023/12/30 09:21:33;;;;;;;3.90;2.15;;;6.00;99.90;;;;;;5096037;28;20047;-89
2023/12/30 09:23:59;;;;;;;7.63;2.85;;;6.00;99.90;;;;;;5095629;28;20075;-89
2023/12/30 09:26:25;;;;;;;7.13;2.42;;;6.00;99.90;;;;;;5079218;28;20063;-90
2023/12/30 09:28:53;;;;;;;6.93;1.83;;;6.00;99.90;;;;;;5096772;28;20040;-91
2023/12/30 09:31:24;;;;;;;13.30;2.88;;;6.10;99.90;;;;;;5093931;28;20085;-90
2023/12/30 09:33:50;;;;;;;7.40;2.42;;;6.10;99.90;;;;;;5084118;28;20119;-90
2023/12/30 09:36:17;;;;;;;7.72;2.78;;;6.10;99.90;;;;;;5084262;28;20131;-90
2023/12/30 09:38:43;;;;;;;9.45;3.08;;;6.20;99.90;;;;;;5075348;28;20498;-90
2023/12/30 09:41:09;;;;;;;9.73;2.97;;;6.20;99.90;;;;;;5093016;28;20057;-89
2023/12/30 09:43:35;;;;;;;12.13;2.88;;;6.30;99.90;;;;;;5095366;28;20043;-90
2023/12/30 09:46:02;;;;;;;6.95;2.60;;;6.30;99.90;;;;;;5087419;28;20043;-90
2023/12/30 09:48:29;;;;;;;8.90;2.92;;;6.40;99.90;;;;;;5078872;28;20043;-89
2023/12/30 09:50:56;;;;;;;10.63;3.78;;;6.40;99.90;;;;;;5094954;28;20032;-90
2023/12/30 09:53:23;;;;;;;17.17;3.55;;;6.40;99.90;;;;;;5094338;28;20035;-90
2023/12/30 09:55:52;;;;;;;9.32;4.00;;;6.50;99.90;;;;;;5095458;28;20070;-90
2023/12/30 09:58:19;;;;;;;13.52;4.93;;;6.50;99.90;;;;;;5095101;28;20042;-90
2023/12/30 10:00:46;;;;;;;9.65;3.47;;;6.60;99.90;;;;;;5095018;28;20039;-90
2023/12/30 10:03:12;;;;;;;10.88;3.25;;;6.60;99.90;;;;;;5098441;28;20403;-91
2023/12/30 10:05:38;;;;;;;8.73;2.42;;;6.70;99.90;;;;;;5081154;28;20082;-91
2023/12/30 10:08:05;;;;;;;11.32;4.38;;;6.70;99.90;;;;;;5083968;28;20028;-90
2023/12/30 10:10:49;;;;;;;6.55;1.88;;;6.80;99.90;;;;;;5085867;28;20483;-91
2023/12/30 10:13:22;;;;;;;9.98;2.85;;;6.80;99.90;;;;;;5103343;28;20036;-90
2023/12/30 10:15:48;;;;;;;4.47;1.60;;;6.90;99.90;;;;;;5113364;28;20420;-91
2023/12/30 10:18:15;;;;;;;9.38;2.50;;;7.00;99.90;;;;;;5094020;28;20126;-90
2023/12/30 10:20:42;;;;;;;6.00;1.48;;;7.00;99.90;;;;;;5087090;28;20043;-90
2023/12/30 10:23:08;;;;;;;5.88;1.95;;;7.00;99.90;;;;;;5085336;28;20036;-90
2023/12/30 10:25:34;;;;;;;4.85;2.08;;;7.10;99.90;;;;;;5087044;28;20175;-88
2023/12/30 10:28:01;;;;;;;7.25;2.38;;;7.20;99.90;;;;;;5104180;28;20044;-90
2023/12/30 10:30:28;;;;;;;4.07;1.75;;;7.20;99.90;;;;;;5091236;28;20410;-91
2023/12/30 10:33:06;;;;;;;5.18;1.98;;;7.30;99.90;;;;;;5091229;28;20147;-91
2023/12/30 10:35:31;;;;;;;9.95;1.60;;;7.30;99.90;;;;;;5095304;28;20077;-91
2023/12/30 10:37:57;;;;;;;8.35;1.63;;;7.40;99.90;;;;;;5094940;28;20498;-89
2023/12/30 10:40:23;;;;;;;6.40;1.33;;;7.40;99.90;;;;;;5086332;28;20054;-90
2023/12/30 10:42:49;;;;;;;6.53;1.58;;;7.50;99.90;;;;;;5094571;28;20063;-90
2023/12/30 10:45:14;;;;;;;4.65;1.30;;;7.60;99.90;;;;;;5085922;28;20042;-91
2023/12/30 10:47:42;;;;;;;7.70;1.80;;;7.60;99.90;;;;;;5094469;28;20085;-91
2023/12/30 10:50:09;;;;;;;12.63;1.63;;;7.70;99.90;;;;;;5103489;28;20491;-90
2023/12/30 10:52:42;;;;;;;13.20;2.45;;;7.80;99.90;;;;;;5086162;28;20072;-90
2023/12/30 10:55:14;;;;;;;1.70;0.63;;;7.90;99.90;;;;;;5094239;28;20130;-91
2023/12/30 10:57:48;;;;;;;5.97;1.33;;;7.90;99.90;;;;;;5094219;28;20046;-91
2023/12/30 11:00:20;;;;;;;14.13;2.22;;;7.90;99.90;;;;;;5085906;28;20044;-91
2023/12/30 11:02:47;;;;;;;4.63;1.08;;;7.90;99.90;;;;;;5094450;28;20031;-92
2023/12/30 11:05:23;;;;;;;4.72;1.02;;;8.00;99.90;;;;;;5084022;28;20048;-91
2023/12/30 11:07:49;;;;;;;4.75;1.27;;;8.00;99.90;;;;;;5071964;28;20158;-91
2023/12/30 11:10:16;;;;;;;4.20;1.15;;;8.20;99.90;;;;;;5074534;28;20039;-90
2023/12/30 11:12:41;;;;;;;3.30;0.95;;;8.30;99.90;;;;;;5093130;28;20074;-90
2023/12/30 11:15:29;;;;;;;4.78;1.33;;;8.40;99.90;;;;;;5085111;28;20071;-90
2023/12/30 11:17:56;;;;;;;1.77;0.75;;;8.40;99.90;;;;;;5087147;28;20047;-90
2023/12/30 11:20:32;;;;;;;3.72;1.08;;;8.40;99.90;;;;;;5111374;28;20035;-90
2023/12/30 11:23:03;;;;;;;3.53;0.93;;;8.50;99.90;;;;;;5093528;28;20042;-91
2023/12/30 11:25:36;;;;;;;9.82;1.70;;;8.50;99.90;;;;;;5093546;28;20571;-91
2023/12/30 11:28:12;;;;;;;9.25;2.08;;;8.60;99.90;;;;;;5093428;28;20043;-91
2023/12/30 11:30:38;;;;;;;8.18;2.08;;;8.60;99.90;;;;;;5112042;28;20050;-91
2023/12/30 11:33:04;;;;;;;7.85;2.13;;;8.70;99.90;;;;;;5093035;28;20035;-91
2023/12/30 11:35:30;;;;;;;6.60;1.52;;;8.70;99.90;;;;;;5102303;28;20432;-90
2023/12/30 11:37:57;;;;;;;9.07;1.63;;;8.70;99.90;;;;;;5086217;28;20039;-91
2023/12/30 11:40:28;;;;;;;3.35;0.90;;;8.70;99.90;;;;;;5092778;28;20050;-91
2023/12/30 11:42:54;;;;;;;7.63;1.42;;;8.80;99.90;;;;;;5084728;28;20058;-90
2023/12/30 11:45:21;;;;;;;5.50;1.33;;;8.80;99.90;;;;;;5093293;28;20294;-91
2023/12/30 11:47:47;;;;;;;12.80;2.70;;;8.80;99.90;;;;;;5093165;28;20043;-92
2023/12/30 11:50:13;;;;;;;9.75;1.83;;;8.90;99.90;;;;;;5091947;28;20031;-91
2023/12/30 11:52:46;;;;;;;5.30;1.42;;;8.90;99.90;;;;;;5081415;28;20480;-91
2023/12/30 11:55:12;;;;;;;3.25;0.85;;;9.10;99.90;;;;;;5090748;28;20031;-90
2023/12/30 11:57:37;;;;;;;9.75;1.60;;;9.10;99.90;;;;;;5085077;28;20486;-91
2023/12/30 12:00:06;;;;;;;8.30;1.40;;;9.00;99.90;;;;;;5109853;28;20043;-90
2023/12/30 12:02:32;;;;;;;7.50;2.03;;;9.00;99.90;;;;;;5107589;28;20044;-90
2023/12/30 12:04:58;;;;;;;8.90;2.10;;;9.00;99.90;;;;;;5106163;28;20043;-90
2023/12/30 12:07:23;;;;;;;8.07;1.90;;;8.90;99.90;;;;;;5099708;28;20044;-89
2023/12/30 12:09:49;;;;;;;7.63;1.50;;;8.90;99.90;;;;;;5084273;28;20158;-90
2023/12/30 12:12:22;;;;;;;11.25;2.03;;;8.80;99.90;;;;;;5109395;28;20039;-89
2023/12/30 12:14:51;;;;;;;10.38;2.15;;;8.80;99.90;;;;;;5109423;28;20043;-90
2023/12/30 12:17:20;;;;;;;9.20;1.90;;;8.70;99.90;;;;;;5109677;28;20047;-90
2023/12/30 12:19:47;;;;;;;4.38;1.35;;;8.70;99.90;;;;;;5089317;28;20466;-90
2023/12/30 12:22:15;;;;;;;10.93;2.05;;;8.70;99.90;;;;;;5073649;28;20035;-90
2023/12/30 12:24:42;;;;;;;5.38;1.45;;;8.60;99.90;;;;;;5096004;28;20039;-91
2023/12/30 12:27:08;;;;;;;9.80;2.22;;;8.60;99.90;;;;;;5089147;28;20126;-90
2023/12/30 12:29:45;;;;;;;13.80;5.60;;;8.50;99.90;;;;;;5088992;28;20126;-90
2023/12/30 12:32:14;;;;;;;7.90;2.00;;;8.50;99.90;;;;;;5092473;28;20032;-89
2023/12/30 12:34:41;;;;;;;10.88;2.72;;;8.50;99.90;;;;;;5073869;28;20101;-89
2023/12/30 12:37:08;;;;;;;7.20;1.70;;;8.50;99.90;;;;;;5063216;28;20102;-90
2023/12/30 12:39:34;;;;;;;8.23;1.60;;;8.50;99.90;;;;;;5073781;28;20044;-90
2023/12/30 12:42:00;;;;;;;16.55;2.55;;;8.60;99.90;;;;;;5072793;28;20565;-90
2023/12/30 12:44:25;;;;;;;9.32;1.63;;;8.60;99.90;;;;;;5075082;28;20122;-90
2023/12/30 12:46:51;;;;;;;5.97;1.50;;;8.60;99.90;;;;;;5110396;28;20128;-89
2023/12/30 12:49:19;;;;;;;6.28;1.58;;;8.60;99.90;;;;;;5110466;28;20040;-90
2023/12/30 12:51:45;;;;;;;4.32;1.23;;;8.60;99.90;;;;;;5082811;28;20039;-90